Terminal Aerodrome Forecast
Issued by NWS

Home | Current Version | Previous Version | Text Only | Print | Product List | Glossary On
Versions: 1 2 3 4 5 6 7 8 9 10 11 12 13
000
FTUS46 KEKA 272343
TAFUKI
TAF
KUKI 272343Z 2800/2824 31012G20KT P6SM SCT020 SCT030 BKN050
     FM280300 33009KT P6SM SCT030 SCT050 BKN100
     FM280700 33003KT P6SM FEW025 BKN050 BKN100=

USA.gov is the U.S. government's official web portal to all federal, state and local government web resources and services.